createdAt,value
2018-01-07T00:01:41.764Z,40.35
2018-01-07T00:04:09.258Z,44.13
2018-01-07T00:06:36.712Z,39.60
2018-01-07T00:09:04.184Z,43.35
2018-01-07T00:11:31.677Z,41.15
2018-01-07T00:13:59.155Z,40.60
2018-01-07T00:16:26.630Z,41.75
2018-01-07T00:18:54.100Z,41.17
2018-01-07T00:21:21.583Z,44.17
2018-01-07T00:23:49.074Z,43.22
2018-01-07T00:26:16.558Z,44.35
2018-01-07T00:28:44.029Z,44.65
2018-01-07T00:31:11.497Z,45.63
2018-01-07T00:33:38.998Z,44.55
2018-01-07T00:36:06.460Z,44.03
2018-01-07T00:38:33.920Z,42.90
2018-01-07T00:41:01.415Z,39.88
2018-01-07T00:43:28.881Z,41.05
2018-01-07T00:45:56.355Z,42.55
2018-01-07T00:48:23.837Z,41.03
2018-01-07T00:50:51.300Z,42.28
2018-01-07T00:53:18.792Z,42.58
2018-01-07T00:55:46.300Z,40.85
2018-01-07T00:58:13.793Z,46.20
2018-01-07T01:00:41.276Z,42.00
2018-01-07T01:03:08.769Z,43.15
2018-01-07T01:05:36.237Z,43.00
2018-01-07T01:08:03.713Z,42.17
2018-01-07T01:10:31.188Z,40.63
2018-01-07T01:12:58.660Z,41.97
2018-01-07T01:15:26.193Z,41.50
2018-01-07T01:17:53.698Z,42.05
2018-01-07T01:20:21.195Z,40.50
2018-01-07T01:22:48.619Z,39.20
2018-01-07T01:25:16.147Z,41.70
2018-01-07T01:27:43.627Z,39.60
2018-01-07T01:30:11.121Z,40.25
2018-01-07T01:32:38.601Z,44.00
2018-01-07T01:35:06.094Z,43.53
2018-01-07T01:37:33.577Z,41.55
2018-01-07T01:40:01.084Z,46.40
2018-01-07T01:42:28.557Z,45.80
2018-01-07T01:44:56.025Z,43.58
2018-01-07T01:47:23.519Z,42.72
2018-01-07T01:49:50.990Z,41.47
2018-01-07T01:52:18.456Z,45.78
2018-01-07T01:54:45.932Z,45.80
2018-01-07T01:57:13.403Z,45.00
2018-01-07T01:59:40.879Z,44.25
2018-01-07T02:02:08.352Z,42.10
2018-01-07T02:04:35.830Z,43.10
2018-01-07T02:07:03.297Z,39.60
2018-01-07T02:09:30.798Z,41.08
2018-01-07T02:11:58.288Z,43.67
2018-01-07T02:14:25.756Z,39.60
2018-01-07T02:16:53.248Z,41.25
2018-01-07T02:19:20.709Z,42.03
2018-01-07T02:21:48.190Z,45.22
2018-01-07T02:24:15.688Z,46.37
2018-01-07T02:26:43.155Z,45.90
2018-01-07T02:29:10.631Z,47.22
2018-01-07T02:31:38.187Z,46.50
2018-01-07T02:34:05.655Z,48.55
2018-01-07T02:36:33.198Z,45.88
2018-01-07T02:39:00.683Z,43.25
2018-01-07T02:41:28.137Z,42.83
2018-01-07T02:43:55.598Z,42.20
2018-01-07T02:46:23.074Z,42.30
2018-01-07T02:48:50.560Z,43.10
2018-01-07T02:51:18.048Z,43.08
2018-01-07T02:53:45.533Z,41.17
2018-01-07T02:56:13.017Z,40.33
2018-01-07T02:58:40.508Z,38.15
2018-01-07T03:01:08.004Z,41.63
2018-01-07T03:03:35.469Z,43.28
2018-01-07T03:06:02.948Z,43.55
2018-01-07T03:08:30.473Z,48.50
2018-01-07T03:10:57.951Z,46.75
2018-01-07T03:13:25.443Z,45.85
2018-01-07T03:15:52.944Z,44.47
2018-01-07T03:18:20.431Z,47.65
2018-01-07T03:20:47.906Z,40.90
2018-01-07T03:23:15.376Z,40.20
2018-01-07T03:25:42.854Z,43.25
2018-01-07T03:28:10.322Z,42.25
2018-01-07T03:30:37.806Z,39.50
2018-01-07T03:33:05.292Z,40.38
2018-01-07T03:35:32.765Z,37.92
2018-01-07T03:38:00.258Z,37.72
2018-01-07T03:40:27.724Z,37.75
2018-01-07T03:42:55.205Z,36.38
2018-01-07T03:45:23.516Z,37.33
2018-01-07T03:47:51.000Z,41.28
2018-01-07T03:50:18.487Z,42.90
2018-01-07T03:52:45.975Z,42.03
2018-01-07T03:55:13.464Z,41.40
2018-01-07T03:57:40.957Z,42.72
2018-01-07T04:00:08.437Z,45.63
2018-01-07T04:02:35.927Z,44.13
2018-01-07T04:05:03.432Z,53.67
2018-01-07T04:07:30.919Z,43.60
2018-01-07T04:09:58.393Z,44.65
2018-01-07T04:12:25.897Z,45.05
2018-01-07T04:14:53.384Z,42.70
2018-01-07T04:17:20.875Z,44.92
2018-01-07T04:19:48.375Z,51.95
2018-01-07T04:22:15.863Z,41.70
2018-01-07T04:24:43.328Z,48.60
2018-01-07T04:27:10.822Z,54.33
2018-01-07T04:29:38.289Z,52.10
2018-01-07T04:32:05.783Z,41.42
2018-01-07T04:34:33.265Z,52.13
2018-01-07T04:37:00.737Z,45.95
2018-01-07T04:39:28.204Z,44.28
2018-01-07T04:41:55.716Z,43.63
2018-01-07T04:44:23.206Z,42.10
2018-01-07T04:46:50.704Z,39.75
2018-01-07T04:49:18.194Z,38.83
2018-01-07T04:51:45.662Z,40.65
2018-01-07T04:54:13.147Z,41.90
2018-01-07T04:56:40.648Z,39.83
2018-01-07T04:59:08.117Z,45.58
2018-01-07T05:01:35.588Z,41.35
2018-01-07T05:04:03.076Z,48.25
2018-01-07T05:06:30.549Z,42.53
2018-01-07T05:08:58.035Z,41.97
2018-01-07T05:11:25.529Z,45.92
2018-01-07T05:13:53.009Z,47.05
2018-01-07T05:16:20.508Z,41.65
2018-01-07T05:18:48.001Z,42.70
2018-01-07T05:21:15.490Z,42.83
2018-01-07T05:23:42.975Z,44.78
2018-01-07T05:26:10.479Z,40.42
2018-01-07T05:28:37.950Z,45.72
2018-01-07T05:31:05.420Z,49.65
2018-01-07T05:33:32.924Z,41.65
2018-01-07T05:36:00.392Z,39.67
2018-01-07T05:38:27.852Z,44.75
2018-01-07T05:40:55.336Z,37.60
2018-01-07T05:43:22.836Z,41.63
2018-01-07T05:45:50.336Z,39.15
2018-01-07T05:48:17.833Z,39.85
2018-01-07T05:50:45.301Z,40.95
2018-01-07T05:53:12.792Z,37.83
2018-01-07T05:55:40.280Z,35.85
2018-01-07T05:58:07.749Z,37.78
2018-01-07T06:00:35.227Z,33.95
2018-01-07T06:03:02.739Z,36.20
2018-01-07T06:05:30.223Z,37.30
2018-01-07T06:07:57.711Z,34.00
2018-01-07T06:10:25.197Z,35.22
2018-01-07T06:12:52.688Z,36.83
2018-01-07T06:15:20.160Z,34.78
2018-01-07T06:17:47.644Z,31.35
2018-01-07T06:20:15.114Z,34.60
2018-01-07T06:22:42.589Z,39.63
2018-01-07T06:25:10.087Z,29.40
2018-01-07T06:27:37.570Z,34.60
2018-01-07T06:30:05.059Z,37.55
2018-01-07T06:32:32.544Z,36.00
2018-01-07T06:35:00.012Z,34.47
2018-01-07T06:37:27.476Z,39.00
2018-01-07T06:39:54.993Z,37.03
2018-01-07T06:42:22.474Z,36.72
2018-01-07T06:44:49.950Z,36.28
2018-01-07T06:47:17.443Z,34.70
2018-01-07T06:49:44.917Z,35.90
2018-01-07T06:52:12.404Z,39.28
2018-01-07T06:54:39.899Z,37.95
2018-01-07T06:57:07.388Z,35.08
2018-01-07T06:59:34.831Z,35.35
2018-01-07T07:02:02.367Z,29.48
2018-01-07T07:04:29.841Z,35.55
2018-01-07T07:06:57.328Z,36.08
2018-01-07T07:09:24.817Z,33.63
2018-01-07T07:11:52.311Z,35.20
2018-01-07T07:14:19.801Z,31.75
2018-01-07T07:16:47.294Z,30.88
2018-01-07T07:19:14.772Z,33.67
2018-01-07T07:21:42.228Z,36.45
2018-01-07T07:24:09.717Z,35.60
2018-01-07T07:26:37.220Z,35.35
2018-01-07T07:29:04.707Z,32.83
2018-01-07T07:31:32.215Z,30.00
2018-01-07T07:33:59.680Z,28.12
2018-01-07T07:36:27.163Z,32.95
2018-01-07T07:38:54.644Z,30.17
2018-01-07T07:41:22.113Z,29.65
2018-01-07T07:43:49.605Z,25.80
2018-01-07T07:46:17.111Z,26.10
2018-01-07T07:48:44.595Z,24.73
2018-01-07T07:51:12.065Z,23.92
2018-01-07T07:53:39.553Z,25.40
2018-01-07T07:56:07.044Z,25.90
2018-01-07T07:58:34.513Z,25.92
2018-01-07T08:01:02.013Z,23.70
2018-01-07T08:03:29.499Z,28.25
2018-01-07T08:05:56.921Z,28.17
2018-01-07T08:08:24.438Z,30.08
2018-01-07T08:10:51.901Z,25.98
2018-01-07T08:13:19.392Z,27.70
2018-01-07T08:15:46.889Z,27.55
2018-01-07T08:18:14.361Z,29.33
2018-01-07T08:20:41.824Z,29.35
2018-01-07T08:23:09.323Z,31.67
2018-01-07T08:25:36.789Z,29.60
2018-01-07T08:28:04.257Z,30.62
2018-01-07T08:30:31.732Z,29.02
2018-01-07T08:32:59.212Z,28.52
2018-01-07T08:35:26.685Z,26.83
2018-01-07T08:37:54.156Z,26.80
2018-01-07T08:40:21.648Z,27.75
2018-01-07T08:42:49.111Z,26.30
2018-01-07T08:45:16.619Z,27.60
2018-01-07T08:47:44.094Z,28.25
2018-01-07T08:50:11.562Z,28.05
2018-01-07T08:52:39.051Z,26.98
2018-01-07T08:55:06.517Z,27.33
2018-01-07T08:57:33.999Z,29.85
2018-01-07T09:00:01.504Z,28.73
2018-01-07T09:02:28.991Z,28.87
2018-01-07T09:04:56.469Z,29.23
2018-01-07T09:07:23.961Z,30.17
2018-01-07T09:09:51.455Z,29.80
2018-01-07T09:12:18.947Z,30.30
2018-01-07T09:14:46.449Z,30.12
2018-01-07T09:17:13.916Z,31.30
2018-01-07T09:19:41.391Z,29.58
2018-01-07T09:22:08.902Z,30.98
2018-01-07T09:24:36.388Z,31.45
2018-01-07T09:27:03.862Z,29.83
2018-01-07T09:29:31.350Z,31.45
2018-01-07T09:31:58.838Z,31.12
2018-01-07T09:34:26.305Z,32.65
2018-01-07T09:36:53.820Z,32.80
2018-01-07T09:39:21.302Z,29.90
2018-01-07T09:41:48.782Z,32.38
2018-01-07T09:44:16.285Z,32.53
2018-01-07T09:46:44.733Z,34.80
2018-01-07T09:49:12.201Z,32.78
2018-01-07T09:51:39.696Z,33.88
2018-01-07T09:54:07.152Z,30.70
2018-01-07T09:56:34.648Z,31.42
2018-01-07T09:59:02.154Z,30.27
2018-01-07T10:01:29.658Z,29.25
2018-01-07T10:03:57.152Z,31.30
2018-01-07T10:06:24.636Z,30.65
2018-01-07T10:08:52.106Z,31.73
2018-01-07T10:11:19.690Z,28.60
2018-01-07T10:13:47.165Z,30.20
2018-01-07T10:16:14.634Z,31.80
2018-01-07T10:18:42.206Z,30.33
2018-01-07T10:21:09.944Z,30.05
2018-01-07T10:23:37.433Z,32.70
2018-01-07T10:26:04.892Z,31.17
2018-01-07T10:28:32.376Z,31.13
2018-01-07T10:30:59.927Z,34.03
2018-01-07T10:33:27.452Z,31.47
2018-01-07T10:35:54.969Z,33.57
2018-01-07T10:38:22.434Z,31.30
2018-01-07T10:40:49.912Z,33.13
2018-01-07T10:43:17.385Z,32.70
2018-01-07T10:45:44.876Z,35.22
2018-01-07T10:48:12.359Z,34.28
2018-01-07T10:50:39.849Z,34.65
2018-01-07T10:53:07.325Z,34.20
2018-01-07T10:55:34.845Z,34.65
2018-01-07T10:58:02.323Z,33.90
2018-01-07T11:13:51.468Z,30.08
2018-01-07T11:16:18.922Z,30.97
2018-01-07T11:18:46.407Z,31.00
2018-01-07T11:21:13.988Z,29.00
2018-01-07T11:23:41.467Z,25.62
2018-01-07T11:26:08.951Z,26.37
2018-01-07T11:28:36.465Z,26.95
2018-01-07T11:31:03.949Z,24.52
2018-01-07T11:33:31.417Z,27.60
2018-01-07T11:35:58.901Z,27.70
2018-01-07T11:38:26.377Z,26.77
2018-01-07T11:40:53.875Z,24.12
2018-01-07T11:43:21.391Z,25.10
2018-01-07T11:45:48.872Z,27.10
2018-01-07T11:48:16.364Z,27.27
2018-01-07T11:50:43.832Z,26.23
2018-01-07T11:53:11.304Z,28.07
2018-01-07T11:55:38.820Z,28.57
2018-01-07T11:58:06.328Z,31.35
2018-01-07T12:00:34.538Z,29.23
2018-01-07T12:03:02.164Z,28.48
2018-01-07T12:05:29.656Z,29.40
2018-01-07T12:07:57.127Z,29.10
2018-01-07T12:10:24.612Z,30.30
2018-01-07T12:12:52.070Z,27.47
2018-01-07T12:15:20.633Z,28.40
2018-01-07T12:17:48.105Z,28.70
2018-01-07T12:20:15.592Z,27.70
2018-01-07T12:22:43.199Z,28.87
2018-01-07T12:25:10.693Z,29.63
2018-01-07T12:27:38.181Z,28.67
2018-01-07T12:30:06.564Z,31.43
2018-01-07T12:32:34.071Z,31.52
2018-01-07T12:35:01.540Z,32.70
2018-01-07T12:37:29.001Z,31.03
2018-01-07T12:39:56.494Z,31.60
2018-01-07T12:42:23.970Z,31.13
2018-01-07T12:44:51.439Z,31.87
2018-01-07T12:47:18.932Z,31.80
2018-01-07T12:49:46.401Z,31.92
2018-01-07T12:52:13.865Z,30.60
2018-01-07T12:54:41.388Z,31.63
2018-01-07T12:57:08.864Z,32.53
2018-01-07T12:59:36.333Z,31.33
2018-01-07T13:02:03.804Z,30.60
2018-01-07T13:04:31.283Z,31.60
2018-01-07T13:06:58.800Z,30.10
2018-01-07T13:09:26.295Z,32.13
2018-01-07T13:11:53.761Z,32.47
2018-01-07T13:14:21.257Z,31.47
2018-01-07T13:16:48.722Z,32.43
2018-01-07T13:19:16.408Z,31.45
2018-01-07T13:21:43.849Z,30.87
2018-01-07T13:24:11.348Z,32.50
2018-01-07T13:26:38.860Z,33.23
2018-01-07T13:29:06.340Z,33.93
2018-01-07T13:31:33.833Z,31.53
2018-01-07T13:34:01.297Z,32.17
2018-01-07T13:36:28.780Z,32.60
2018-01-07T13:38:56.272Z,31.73
2018-01-07T13:41:23.781Z,32.50
2018-01-07T13:43:51.232Z,32.30
2018-01-07T13:46:18.835Z,30.67
2018-01-07T13:48:46.365Z,30.37
2018-01-07T13:51:13.823Z,30.33
2018-01-07T13:53:41.306Z,30.90
2018-01-07T13:56:08.787Z,30.48
2018-01-07T13:58:36.254Z,30.55
2018-01-07T14:01:03.726Z,30.50
2018-01-07T14:03:31.194Z,30.80
2018-01-07T14:05:58.652Z,29.30
2018-01-07T14:08:26.129Z,29.57
2018-01-07T14:10:53.601Z,29.98
2018-01-07T14:13:21.077Z,30.70
2018-01-07T14:15:48.588Z,27.23
2018-01-07T14:18:16.108Z,30.20
2018-01-07T14:20:43.590Z,27.25
2018-01-07T14:23:11.057Z,27.90
2018-01-07T14:25:38.564Z,29.05
2018-01-07T14:28:06.056Z,28.33
2018-01-07T14:30:33.534Z,29.63
2018-01-07T14:33:01.002Z,30.90
2018-01-07T14:35:28.479Z,27.53
2018-01-07T14:37:55.947Z,28.60
2018-01-07T14:40:23.415Z,30.90
2018-01-07T14:42:50.881Z,29.27
2018-01-07T14:45:18.340Z,30.53
2018-01-07T14:47:45.852Z,29.27
2018-01-07T14:50:13.325Z,29.40
2018-01-07T14:52:40.794Z,27.73
2018-01-07T14:55:08.280Z,29.17
2018-01-07T14:57:35.757Z,28.90
2018-01-07T15:00:03.252Z,29.90
2018-01-07T15:02:30.729Z,31.33
2018-01-07T15:04:58.206Z,28.83
2018-01-07T15:07:25.695Z,28.02
2018-01-07T15:09:53.173Z,30.53
2018-01-07T15:12:20.625Z,28.57
2018-01-07T15:14:48.096Z,30.40
2018-01-07T15:17:15.565Z,28.73
2018-01-07T15:19:43.021Z,30.13
2018-01-07T15:22:10.503Z,30.50
2018-01-07T15:24:37.995Z,31.90
2018-01-07T15:27:05.464Z,30.30
2018-01-07T15:29:32.946Z,30.75
2018-01-07T15:32:00.417Z,31.20
2018-01-07T15:34:27.876Z,30.48
2018-01-07T15:36:55.340Z,29.00
2018-01-07T15:39:22.834Z,29.15
2018-01-07T15:41:50.306Z,30.50
2018-01-07T15:44:17.781Z,28.87
2018-01-07T15:46:45.265Z,26.23
2018-01-07T15:49:12.736Z,28.50
2018-01-07T15:51:40.207Z,32.67
2018-01-07T15:54:07.673Z,30.60
2018-01-07T15:56:35.154Z,31.98
2018-01-07T15:59:02.648Z,29.17
2018-01-07T16:01:30.312Z,30.20
2018-01-07T16:03:57.778Z,32.73
2018-01-07T16:06:25.260Z,32.42
2018-01-07T16:08:52.770Z,31.73
2018-01-07T16:11:20.264Z,30.20
2018-01-07T16:13:47.747Z,30.05
2018-01-07T16:16:15.205Z,29.85
2018-01-07T16:18:42.697Z,29.50
2018-01-07T16:21:10.178Z,25.42
2018-01-07T16:23:37.632Z,24.80
2018-01-07T16:26:05.126Z,26.42
2018-01-07T16:28:32.599Z,26.35
2018-01-07T16:31:00.082Z,25.37
2018-01-07T16:33:27.580Z,22.60
2018-01-07T16:35:55.055Z,24.13
2018-01-07T16:38:22.547Z,23.10
2018-01-07T16:40:50.053Z,22.90
2018-01-07T16:43:17.500Z,22.87
2018-01-07T16:45:44.974Z,22.98
2018-01-07T16:48:12.459Z,22.50
2018-01-07T16:50:39.921Z,22.77
2018-01-07T16:53:07.391Z,22.20
2018-01-07T16:55:34.864Z,23.12
2018-01-07T16:58:02.336Z,22.67
2018-01-07T17:00:29.798Z,22.43
2018-01-07T17:02:57.325Z,22.02
2018-01-07T17:05:24.785Z,21.20
2018-01-07T17:07:52.263Z,20.77
2018-01-07T17:10:19.759Z,21.47
2018-01-07T17:12:47.243Z,21.17
2018-01-07T17:15:14.712Z,19.80
2018-01-07T17:17:42.203Z,21.65
2018-01-07T17:20:09.683Z,20.97
2018-01-07T17:22:37.141Z,18.90
2018-01-07T17:25:04.612Z,20.20
2018-01-07T17:27:32.083Z,18.07
2018-01-07T17:29:59.571Z,20.02
2018-01-07T17:32:27.055Z,19.67
2018-01-07T17:34:54.538Z,19.27
2018-01-07T17:37:22.006Z,19.53
2018-01-07T17:39:49.512Z,18.67
2018-01-07T17:42:16.992Z,17.00
2018-01-07T17:44:44.456Z,19.83
2018-01-07T17:47:11.951Z,17.37
2018-01-07T17:49:39.404Z,18.17
2018-01-07T17:52:06.857Z,16.50
2018-01-07T17:54:34.358Z,17.17
2018-01-07T17:57:01.817Z,17.70
2018-01-07T17:59:29.290Z,15.43
2018-01-07T18:01:56.760Z,17.12
2018-01-07T18:04:24.239Z,17.60
2018-01-07T18:06:51.721Z,17.12
2018-01-07T18:09:19.201Z,17.55
2018-01-07T18:11:46.652Z,16.83
2018-01-07T18:14:14.122Z,16.90
2018-01-07T18:16:41.584Z,16.00
2018-01-07T18:19:09.032Z,17.50
2018-01-07T18:21:36.511Z,17.10
2018-01-07T18:24:03.968Z,16.73
2018-01-07T18:26:31.431Z,18.40
2018-01-07T18:28:58.897Z,17.87
2018-01-07T18:31:26.356Z,18.10
2018-01-07T18:33:53.837Z,17.77
2018-01-07T18:36:21.320Z,19.48
2018-01-07T18:38:48.873Z,18.97
2018-01-07T18:41:16.337Z,18.48
2018-01-07T18:43:43.830Z,19.67
2018-01-07T18:46:11.322Z,20.88
2018-01-07T18:48:38.789Z,19.40
2018-01-07T18:51:06.271Z,19.70
2018-01-07T18:53:33.760Z,20.45
2018-01-07T18:56:01.228Z,20.75
2018-01-07T18:58:28.696Z,20.60
2018-01-07T19:00:56.165Z,22.08
2018-01-07T19:03:23.641Z,21.02
2018-01-07T19:05:51.132Z,21.37
2018-01-07T19:08:18.617Z,20.57
2018-01-07T19:10:46.068Z,21.03
2018-01-07T19:13:13.563Z,21.92
2018-01-07T19:15:41.028Z,21.85
2018-01-07T19:18:08.497Z,22.50
2018-01-07T19:20:35.985Z,23.92
2018-01-07T19:23:03.456Z,23.27
2018-01-07T19:25:30.931Z,21.90
2018-01-07T19:27:58.422Z,22.67
2018-01-07T19:30:25.899Z,22.80
2018-01-07T19:32:53.363Z,24.20
2018-01-07T19:35:20.845Z,24.65
2018-01-07T19:37:48.320Z,23.70
2018-01-07T19:40:15.808Z,23.75
2018-01-07T19:42:43.307Z,25.73
2018-01-07T19:45:10.826Z,23.33
2018-01-07T19:47:38.327Z,23.52
2018-01-07T19:50:05.831Z,23.35
2018-01-07T19:52:33.301Z,24.98
2018-01-07T19:55:00.788Z,24.25
2018-01-07T19:57:28.279Z,25.48
2018-01-07T19:59:55.749Z,24.83
2018-01-07T20:02:23.225Z,24.45
2018-01-07T20:04:50.756Z,24.87
2018-01-07T20:07:18.224Z,26.15
2018-01-07T20:09:45.703Z,24.15
2018-01-07T20:12:13.179Z,25.10
2018-01-07T20:14:40.683Z,22.55
2018-01-07T20:17:08.165Z,25.08
2018-01-07T20:19:35.669Z,24.27
2018-01-07T20:22:03.145Z,24.80
2018-01-07T20:24:30.614Z,22.83
2018-01-07T20:26:58.125Z,24.02
2018-01-07T20:29:25.826Z,22.90
2018-01-07T20:31:53.333Z,23.77
2018-01-07T20:34:20.829Z,23.12
2018-01-07T20:36:48.328Z,22.58
2018-01-07T20:39:15.812Z,23.20
2018-01-07T20:41:43.302Z,22.83
2018-01-07T20:44:10.762Z,23.00
2018-01-07T20:46:38.265Z,23.83
2018-01-07T20:49:05.795Z,22.42
2018-01-07T20:51:33.267Z,25.02
2018-01-07T20:54:00.751Z,24.83
2018-01-07T20:56:28.234Z,22.23
2018-01-07T20:58:55.725Z,22.70
2018-01-07T21:01:23.191Z,22.70
2018-01-07T21:03:50.677Z,21.08
2018-01-07T21:06:18.151Z,23.70
2018-01-07T21:08:45.648Z,22.80
2018-01-07T21:11:13.120Z,22.77
2018-01-07T21:13:40.605Z,22.33
2018-01-07T21:16:08.077Z,22.63
2018-01-07T21:18:35.556Z,23.10
2018-01-07T21:21:03.048Z,22.70
2018-01-07T21:23:30.513Z,23.33
2018-01-07T21:25:57.977Z,24.08
2018-01-07T21:28:25.454Z,21.85
2018-01-07T21:30:52.921Z,22.83
2018-01-07T21:33:20.371Z,21.30
2018-01-07T21:35:47.859Z,22.27
2018-01-07T21:38:15.326Z,22.60
2018-01-07T21:40:42.794Z,21.50
2018-01-07T21:43:10.290Z,21.60
2018-01-07T21:45:37.774Z,23.35
2018-01-07T21:48:05.244Z,20.05
2018-01-07T21:50:32.743Z,22.10
2018-01-07T21:53:00.224Z,21.40
2018-01-07T21:55:27.681Z,23.95
2018-01-07T21:57:55.172Z,20.55
2018-01-07T22:00:43.352Z,22.42
2018-01-07T22:03:22.548Z,21.95
2018-01-07T22:05:54.812Z,23.08
2018-01-07T22:08:22.298Z,21.75
2018-01-07T22:10:49.787Z,21.80
2018-01-07T22:13:17.288Z,22.90
2018-01-07T22:15:44.835Z,23.95
2018-01-07T22:18:12.292Z,23.90
2018-01-07T22:20:39.759Z,22.07
2018-01-07T22:23:07.212Z,22.07
2018-01-07T22:25:34.699Z,22.87
2018-01-07T22:28:02.205Z,23.55
2018-01-07T22:30:29.662Z,23.00
2018-01-07T22:32:57.135Z,23.20
2018-01-07T22:35:24.605Z,22.90
2018-01-07T22:37:52.065Z,22.37
2018-01-07T22:40:19.529Z,22.10
2018-01-07T22:42:47.031Z,22.60
2018-01-07T22:45:14.492Z,24.03
2018-01-07T22:47:48.161Z,22.80
2018-01-07T22:50:15.617Z,23.17
2018-01-07T22:52:43.100Z,24.10
2018-01-07T22:55:10.569Z,22.70
2018-01-07T22:57:38.030Z,24.10
2018-01-07T23:00:05.519Z,24.15
2018-01-07T23:02:33.029Z,25.03
2018-01-07T23:05:00.519Z,25.25
2018-01-07T23:07:27.987Z,21.87
2018-01-07T23:09:55.467Z,24.87
2018-01-07T23:12:22.943Z,25.13
2018-01-07T23:14:50.420Z,24.83
2018-01-07T23:17:17.911Z,26.20
2018-01-07T23:19:45.372Z,24.90
2018-01-07T23:22:12.853Z,25.00
2018-01-07T23:24:40.343Z,23.73
2018-01-07T23:27:07.793Z,23.03
2018-01-07T23:29:35.263Z,24.10
2018-01-07T23:32:02.752Z,25.30
2018-01-07T23:34:30.216Z,24.95
2018-01-07T23:36:57.687Z,24.93
2018-01-07T23:39:25.153Z,25.33
2018-01-07T23:41:52.638Z,27.00
2018-01-07T23:44:20.108Z,24.17
2018-01-07T23:46:47.584Z,23.70
2018-01-07T23:49:15.068Z,25.07
2018-01-07T23:51:42.537Z,25.40
2018-01-07T23:54:10.009Z,26.15
2018-01-07T23:56:37.472Z,26.75
2018-01-07T23:59:04.948Z,27.40
